sensor_id;sensor_type;location;lat;lon;timestamp;temperature;humidity
14144;DHT22;7152;48.348;10.980;2023-03-01T00:00:39;1.80;99.90
14144;DHT22;7152;48.348;10.980;2023-03-01T00:03:05;1.80;99.90
14144;DHT22;7152;48.348;10.980;2023-03-01T00:05:31;1.80;99.90
14144;DHT22;7152;48.348;10.980;2023-03-01T00:07:57;1.80;99.90
14144;DHT22;7152;48.348;10.980;2023-03-01T00:10:23;1.80;99.90
14144;DHT22;7152;48.348;10.980;2023-03-01T00:12:48;1.70;99.90
14144;DHT22;7152;48.348;10.980;2023-03-01T00:15:14;1.70;99.90
14144;DHT22;7152;48.348;10.980;2023-03-01T00:17:40;1.70;99.90
14144;DHT22;7152;48.348;10.980;2023-03-01T00:20:06;1.80;99.90
14144;DHT22;7152;48.348;10.980;2023-03-01T00:22:38;1.80;99.90
14144;DHT22;7152;48.348;10.980;2023-03-01T00:25:04;1.80;99.90
14144;DHT22;7152;48.348;10.980;2023-03-01T00:27:29;1.80;99.90
14144;DHT22;7152;48.348;10.980;2023-03-01T00:29:55;1.80;99.90
14144;DHT22;7152;48.348;10.980;2023-03-01T00:32:21;1.80;99.90
14144;DHT22;7152;48.348;10.980;2023-03-01T00:34:46;1.80;99.90
14144;DHT22;7152;48.348;10.980;2023-03-01T00:37:20;1.80;99.90
14144;DHT22;7152;48.348;10.980;2023-03-01T00:39:46;1.70;99.90
14144;DHT22;7152;48.348;10.980;2023-03-01T00:42:12;1.80;99.90
14144;DHT22;7152;48.348;10.980;2023-03-01T00:44:37;1.80;99.90
14144;DHT22;7152;48.348;10.980;2023-03-01T00:47:03;1.80;99.90
14144;DHT22;7152;48.348;10.980;2023-03-01T00:49:29;1.80;99.90
14144;DHT22;7152;48.348;10.980;2023-03-01T00:51:54;1.70;99.90
14144;DHT22;7152;48.348;10.980;2023-03-01T00:54:20;1.80;99.90
14144;DHT22;7152;48.348;10.980;2023-03-01T00:56:45;1.80;99.90
14144;DHT22;7152;48.348;10.980;2023-03-01T00:59:11;1.80;99.90
14144;DHT22;7152;48.348;10.980;2023-03-01T01:01:37;1.70;99.90
14144;DHT22;7152;48.348;10.980;2023-03-01T01:04:05;1.70;99.90
14144;DHT22;7152;48.348;10.980;2023-03-01T01:06:34;1.80;99.90
14144;DHT22;7152;48.348;10.980;2023-03-01T01:09:01;1.80;99.90
14144;DHT22;7152;48.348;10.980;2023-03-01T01:11:28;1.80;99.90
14144;DHT22;7152;48.348;10.980;2023-03-01T01:13:55;1.70;99.90
14144;DHT22;7152;48.348;10.980;2023-03-01T01:16:23;1.70;99.90
14144;DHT22;7152;48.348;10.980;2023-03-01T01:18:49;1.70;99.90
14144;DHT22;7152;48.348;10.980;2023-03-01T01:21:18;1.80;99.90
14144;DHT22;7152;48.348;10.980;2023-03-01T01:23:45;1.80;99.90
14144;DHT22;7152;48.348;10.980;2023-03-01T01:26:23;1.80;99.90
14144;DHT22;7152;48.348;10.980;2023-03-01T01:28:50;1.70;99.90
14144;DHT22;7152;48.348;10.980;2023-03-01T01:31:17;1.80;99.90
14144;DHT22;7152;48.348;10.980;2023-03-01T01:33:43;1.80;99.90
14144;DHT22;7152;48.348;10.980;2023-03-01T01:36:09;1.70;99.90
14144;DHT22;7152;48.348;10.980;2023-03-01T01:38:36;1.80;99.90
14144;DHT22;7152;48.348;10.980;2023-03-01T01:41:02;1.70;99.90
14144;DHT22;7152;48.348;10.980;2023-03-01T01:43:33;1.70;99.90
14144;DHT22;7152;48.348;10.980;2023-03-01T01:46:05;1.70;99.90
14144;DHT22;7152;48.348;10.980;2023-03-01T01:48:55;1.70;99.90
14144;DHT22;7152;48.348;10.980;2023-03-01T01:51:27;1.70;99.90
14144;DHT22;7152;48.348;10.980;2023-03-01T01:53:59;1.60;99.90
14144;DHT22;7152;48.348;10.980;2023-03-01T01:56:26;1.60;99.90
14144;DHT22;7152;48.348;10.980;2023-03-01T01:58:54;1.60;99.90
14144;DHT22;7152;48.348;10.980;2023-03-01T02:01:20;1.50;99.90
14144;DHT22;7152;48.348;10.980;2023-03-01T02:03:46;1.50;99.90
14144;DHT22;7152;48.348;10.980;2023-03-01T02:06:31;1.50;99.90
14144;DHT22;7152;48.348;10.980;2023-03-01T02:09:03;1.50;99.90
14144;DHT22;7152;48.348;10.980;2023-03-01T02:11:31;1.40;99.90
14144;DHT22;7152;48.348;10.980;2023-03-01T02:13:59;1.40;99.90
14144;DHT22;7152;48.348;10.980;2023-03-01T02:16:26;1.40;99.90
14144;DHT22;7152;48.348;10.980;2023-03-01T02:18:52;1.30;99.90
14144;DHT22;7152;48.348;10.980;2023-03-01T02:27:18;1.40;99.90
14144;DHT22;7152;48.348;10.980;2023-03-01T02:29:47;1.30;99.90
14144;DHT22;7152;48.348;10.980;2023-03-01T02:32:14;1.30;99.90
14144;DHT22;7152;48.348;10.980;2023-03-01T02:34:40;1.30;99.90
14144;DHT22;7152;48.348;10.980;2023-03-01T02:37:13;1.30;99.90
14144;DHT22;7152;48.348;10.980;2023-03-01T02:39:47;1.20;99.90
14144;DHT22;7152;48.348;10.980;2023-03-01T02:42:16;1.30;99.90
14144;DHT22;7152;48.348;10.980;2023-03-01T02:44:43;1.20;99.90
14144;DHT22;7152;48.348;10.980;2023-03-01T02:47:09;1.20;99.90
14144;DHT22;7152;48.348;10.980;2023-03-01T02:49:36;1.20;99.90
14144;DHT22;7152;48.348;10.980;2023-03-01T02:55:21;1.20;99.90
14144;DHT22;7152;48.348;10.980;2023-03-01T02:57:48;1.10;99.90
14144;DHT22;7152;48.348;10.980;2023-03-01T03:00:30;1.10;99.90
14144;DHT22;7152;48.348;10.980;2023-03-01T03:02:58;1.10;99.90
14144;DHT22;7152;48.348;10.980;2023-03-01T03:05:27;1.10;99.90
14144;DHT22;7152;48.348;10.980;2023-03-01T03:07:53;1.10;99.90
14144;DHT22;7152;48.348;10.980;2023-03-01T03:10:24;1.10;99.90
14144;DHT22;7152;48.348;10.980;2023-03-01T03:13:02;1.10;99.90
14144;DHT22;7152;48.348;10.980;2023-03-01T03:15:29;1.10;99.90
14144;DHT22;7152;48.348;10.980;2023-03-01T03:17:56;1.10;99.90
14144;DHT22;7152;48.348;10.980;2023-03-01T03:20:25;1.10;99.90
14144;DHT22;7152;48.348;10.980;2023-03-01T03:22:53;1.00;99.90
14144;DHT22;7152;48.348;10.980;2023-03-01T03:25:19;1.00;99.90
14144;DHT22;7152;48.348;10.980;2023-03-01T03:27:47;1.10;99.90
14144;DHT22;7152;48.348;10.980;2023-03-01T03:30:17;1.00;99.90
14144;DHT22;7152;48.348;10.980;2023-03-01T03:32:45;1.10;99.90
14144;DHT22;7152;48.348;10.980;2023-03-01T03:35:22;1.10;99.90
14144;DHT22;7152;48.348;10.980;2023-03-01T03:37:49;1.10;99.90
14144;DHT22;7152;48.348;10.980;2023-03-01T03:40:42;1.20;99.90
14144;DHT22;7152;48.348;10.980;2023-03-01T03:43:10;1.10;99.90
14144;DHT22;7152;48.348;10.980;2023-03-01T03:45:37;1.10;99.90
14144;DHT22;7152;48.348;10.980;2023-03-01T03:48:05;1.10;99.90
14144;DHT22;7152;48.348;10.980;2023-03-01T03:50:32;1.10;99.90
14144;DHT22;7152;48.348;10.980;2023-03-01T03:52:59;1.10;99.90
14144;DHT22;7152;48.348;10.980;2023-03-01T03:55:25;1.10;99.90
14144;DHT22;7152;48.348;10.980;2023-03-01T03:57:57;1.10;99.90
14144;DHT22;7152;48.348;10.980;2023-03-01T04:00:23;1.10;99.90
14144;DHT22;7152;48.348;10.980;2023-03-01T04:02:50;1.10;99.90
14144;DHT22;7152;48.348;10.980;2023-03-01T04:05:18;1.10;99.90
14144;DHT22;7152;48.348;10.980;2023-03-01T04:07:44;1.10;99.90
14144;DHT22;7152;48.348;10.980;2023-03-01T04:10:12;1.10;99.90
14144;DHT22;7152;48.348;10.980;2023-03-01T04:12:38;1.10;99.90
14144;DHT22;7152;48.348;10.980;2023-03-01T04:15:06;1.10;99.90
14144;DHT22;7152;48.348;10.980;2023-03-01T04:17:42;1.20;99.90
14144;DHT22;7152;48.348;10.980;2023-03-01T04:20:14;1.20;99.90
14144;DHT22;7152;48.348;10.980;2023-03-01T04:22:43;1.20;99.90
14144;DHT22;7152;48.348;10.980;2023-03-01T04:25:09;1.20;99.90
14144;DHT22;7152;48.348;10.980;2023-03-01T04:27:35;1.20;99.90
14144;DHT22;7152;48.348;10.980;2023-03-01T04:30:03;1.10;99.90
14144;DHT22;7152;48.348;10.980;2023-03-01T04:32:29;1.10;99.90
14144;DHT22;7152;48.348;10.980;2023-03-01T04:34:54;1.10;99.90
14144;DHT22;7152;48.348;10.980;2023-03-01T04:37:20;1.10;99.90
14144;DHT22;7152;48.348;10.980;2023-03-01T04:39:45;1.10;99.90
14144;DHT22;7152;48.348;10.980;2023-03-01T04:42:13;1.10;99.90
14144;DHT22;7152;48.348;10.980;2023-03-01T04:44:39;1.10;99.90
14144;DHT22;7152;48.348;10.980;2023-03-01T04:47:05;1.10;99.90
14144;DHT22;7152;48.348;10.980;2023-03-01T04:49:30;1.00;99.90
14144;DHT22;7152;48.348;10.980;2023-03-01T04:51:57;1.00;99.90
14144;DHT22;7152;48.348;10.980;2023-03-01T04:54:31;1.00;99.90
14144;DHT22;7152;48.348;10.980;2023-03-01T04:56:57;0.90;99.90
14144;DHT22;7152;48.348;10.980;2023-03-01T04:59:23;0.90;99.90
14144;DHT22;7152;48.348;10.980;2023-03-01T05:01:50;0.90;99.90
14144;DHT22;7152;48.348;10.980;2023-03-01T05:04:15;0.80;99.90
14144;DHT22;7152;48.348;10.980;2023-03-01T05:06:41;0.70;99.90
14144;DHT22;7152;48.348;10.980;2023-03-01T05:09:07;0.60;99.90
14144;DHT22;7152;48.348;10.980;2023-03-01T05:11:33;0.50;99.90
14144;DHT22;7152;48.348;10.980;2023-03-01T05:14:02;0.40;99.90
14144;DHT22;7152;48.348;10.980;2023-03-01T05:16:28;0.30;99.90
14144;DHT22;7152;48.348;10.980;2023-03-01T05:18:53;0.30;99.90
14144;DHT22;7152;48.348;10.980;2023-03-01T05:21:21;0.20;99.90
14144;DHT22;7152;48.348;10.980;2023-03-01T05:23:47;0.10;99.90
14144;DHT22;7152;48.348;10.980;2023-03-01T05:26:13;0.10;99.90
14144;DHT22;7152;48.348;10.980;2023-03-01T05:28:39;-0.10;99.90
14144;DHT22;7152;48.348;10.980;2023-03-01T05:31:05;-0.10;99.90
14144;DHT22;7152;48.348;10.980;2023-03-01T05:33:39;-0.20;99.90
14144;DHT22;7152;48.348;10.980;2023-03-01T05:36:06;-0.20;99.90
14144;DHT22;7152;48.348;10.980;2023-03-01T05:38:32;-0.30;99.90
14144;DHT22;7152;48.348;10.980;2023-03-01T05:40:58;-0.30;99.90
14144;DHT22;7152;48.348;10.980;2023-03-01T05:43:24;-0.40;99.90
14144;DHT22;7152;48.348;10.980;2023-03-01T05:45:49;-0.40;99.90
14144;DHT22;7152;48.348;10.980;2023-03-01T05:48:15;-0.40;99.90
14144;DHT22;7152;48.348;10.980;2023-03-01T05:50:43;-0.40;99.90
14144;DHT22;7152;48.348;10.980;2023-03-01T05:53:15;-0.20;99.90
14144;DHT22;7152;48.348;10.980;2023-03-01T05:55:43;-0.50;99.90
14144;DHT22;7152;48.348;10.980;2023-03-01T05:58:13;-0.50;99.90
14144;DHT22;7152;48.348;10.980;2023-03-01T06:00:39;-0.50;99.90
14144;DHT22;7152;48.348;10.980;2023-03-01T06:03:05;-0.60;99.90
14144;DHT22;7152;48.348;10.980;2023-03-01T06:05:31;-0.60;99.90
14144;DHT22;7152;48.348;10.980;2023-03-01T06:08:00;-0.50;99.90
14144;DHT22;7152;48.348;10.980;2023-03-01T06:10:26;-0.60;99.90
14144;DHT22;7152;48.348;10.980;2023-03-01T06:12:52;-0.60;99.90
14144;DHT22;7152;48.348;10.980;2023-03-01T06:15:18;-0.60;99.90
14144;DHT22;7152;48.348;10.980;2023-03-01T06:17:45;-0.60;99.90
14144;DHT22;7152;48.348;10.980;2023-03-01T06:20:15;-0.70;99.90
14144;DHT22;7152;48.348;10.980;2023-03-01T06:22:42;-0.60;99.90
14144;DHT22;7152;48.348;10.980;2023-03-01T06:25:09;-0.70;99.90
14144;DHT22;7152;48.348;10.980;2023-03-01T06:27:36;-0.70;99.90
14144;DHT22;7152;48.348;10.980;2023-03-01T06:30:02;-0.60;99.90
14144;DHT22;7152;48.348;10.980;2023-03-01T06:32:28;-0.60;99.90
14144;DHT22;7152;48.348;10.980;2023-03-01T06:34:53;-0.60;99.90
14144;DHT22;7152;48.348;10.980;2023-03-01T06:37:19;-0.50;99.90
14144;DHT22;7152;48.348;10.980;2023-03-01T06:39:45;-0.40;99.90
14144;DHT22;7152;48.348;10.980;2023-03-01T06:42:10;-0.30;99.90
14144;DHT22;7152;48.348;10.980;2023-03-01T06:44:37;-0.20;99.90
14144;DHT22;7152;48.348;10.980;2023-03-01T06:47:03;-0.10;99.90
14144;DHT22;7152;48.348;10.980;2023-03-01T06:49:29;-0.10;99.90
14144;DHT22;7152;48.348;10.980;2023-03-01T06:51:55;0.00;99.90
14144;DHT22;7152;48.348;10.980;2023-03-01T06:54:21;0.00;99.90
14144;DHT22;7152;48.348;10.980;2023-03-01T06:56:48;0.10;99.90
14144;DHT22;7152;48.348;10.980;2023-03-01T06:59:14;0.20;99.90
14144;DHT22;7152;48.348;10.980;2023-03-01T07:01:40;0.20;99.90
14144;DHT22;7152;48.348;10.980;2023-03-01T07:04:06;0.30;99.90
14144;DHT22;7152;48.348;10.980;2023-03-01T07:06:31;0.30;99.90
14144;DHT22;7152;48.348;10.980;2023-03-01T07:08:57;0.30;99.90
14144;DHT22;7152;48.348;10.980;2023-03-01T07:11:22;0.40;99.90
14144;DHT22;7152;48.348;10.980;2023-03-01T07:13:48;0.50;99.90
14144;DHT22;7152;48.348;10.980;2023-03-01T07:16:14;0.60;99.90
14144;DHT22;7152;48.348;10.980;2023-03-01T07:18:40;0.60;99.90
14144;DHT22;7152;48.348;10.980;2023-03-01T07:21:11;0.70;99.90
14144;DHT22;7152;48.348;10.980;2023-03-01T07:23:37;0.70;99.90
14144;DHT22;7152;48.348;10.980;2023-03-01T07:26:03;0.80;99.90
14144;DHT22;7152;48.348;10.980;2023-03-01T07:28:29;0.80;99.90
14144;DHT22;7152;48.348;10.980;2023-03-01T07:31:01;0.90;99.90
14144;DHT22;7152;48.348;10.980;2023-03-01T07:33:26;1.00;99.90
14144;DHT22;7152;48.348;10.980;2023-03-01T07:35:59;1.00;99.90
14144;DHT22;7152;48.348;10.980;2023-03-01T07:38:26;1.10;99.90
14144;DHT22;7152;48.348;10.980;2023-03-01T07:40:52;1.20;99.90
14144;DHT22;7152;48.348;10.980;2023-03-01T07:43:18;1.30;99.90
14144;DHT22;7152;48.348;10.980;2023-03-01T07:45:44;1.40;99.90
14144;DHT22;7152;48.348;10.980;2023-03-01T07:48:10;1.60;99.90
14144;DHT22;7152;48.348;10.980;2023-03-01T07:50:36;1.60;99.90
14144;DHT22;7152;48.348;10.980;2023-03-01T07:53:01;1.60;99.90
14144;DHT22;7152;48.348;10.980;2023-03-01T07:55:28;1.60;99.90
14144;DHT22;7152;48.348;10.980;2023-03-01T07:57:53;1.70;99.90
14144;DHT22;7152;48.348;10.980;2023-03-01T08:00:19;1.70;99.90
14144;DHT22;7152;48.348;10.980;2023-03-01T08:02:45;1.80;99.90
14144;DHT22;7152;48.348;10.980;2023-03-01T08:05:10;1.80;99.90
14144;DHT22;7152;48.348;10.980;2023-03-01T08:07:36;1.90;99.90
14144;DHT22;7152;48.348;10.980;2023-03-01T08:10:02;1.90;99.90
14144;DHT22;7152;48.348;10.980;2023-03-01T08:12:28;2.00;99.90
14144;DHT22;7152;48.348;10.980;2023-03-01T08:14:54;2.00;99.90
14144;DHT22;7152;48.348;10.980;2023-03-01T08:17:20;2.10;99.90
14144;DHT22;7152;48.348;10.980;2023-03-01T08:19:45;2.10;99.90
14144;DHT22;7152;48.348;10.980;2023-03-01T08:22:11;2.20;99.90
14144;DHT22;7152;48.348;10.980;2023-03-01T08:24:37;2.20;99.90
14144;DHT22;7152;48.348;10.980;2023-03-01T08:27:03;2.30;99.90
14144;DHT22;7152;48.348;10.980;2023-03-01T08:29:30;2.40;99.90
14144;DHT22;7152;48.348;10.980;2023-03-01T08:31:57;2.50;99.90
14144;DHT22;7152;48.348;10.980;2023-03-01T08:34:22;2.50;99.90
14144;DHT22;7152;48.348;10.980;2023-03-01T08:36:48;2.60;99.90
14144;DHT22;7152;48.348;10.980;2023-03-01T08:39:16;2.70;99.90
14144;DHT22;7152;48.348;10.980;2023-03-01T08:41:42;2.70;99.90
14144;DHT22;7152;48.348;10.980;2023-03-01T08:44:10;2.70;99.90
14144;DHT22;7152;48.348;10.980;2023-03-01T08:46:38;2.70;99.90
14144;DHT22;7152;48.348;10.980;2023-03-01T08:49:11;2.70;99.90
14144;DHT22;7152;48.348;10.980;2023-03-01T08:51:38;2.70;99.90
14144;DHT22;7152;48.348;10.980;2023-03-01T08:54:05;2.70;99.90
14144;DHT22;7152;48.348;10.980;2023-03-01T08:56:31;2.80;99.90
14144;DHT22;7152;48.348;10.980;2023-03-01T08:58:56;2.90;99.90
14144;DHT22;7152;48.348;10.980;2023-03-01T09:01:22;3.00;99.90
14144;DHT22;7152;48.348;10.980;2023-03-01T09:03:47;3.10;99.90
14144;DHT22;7152;48.348;10.980;2023-03-01T09:06:13;3.10;99.90
14144;DHT22;7152;48.348;10.980;2023-03-01T09:08:41;3.20;99.90
14144;DHT22;7152;48.348;10.980;2023-03-01T09:11:09;3.40;99.90
14144;DHT22;7152;48.348;10.980;2023-03-01T09:13:38;3.40;99.90
14144;DHT22;7152;48.348;10.980;2023-03-01T09:16:05;3.40;99.90
14144;DHT22;7152;48.348;10.980;2023-03-01T09:18:32;3.50;99.90
14144;DHT22;7152;48.348;10.980;2023-03-01T09:23:37;3.60;99.90
14144;DHT22;7152;48.348;10.980;2023-03-01T09:26:05;3.60;99.90
14144;DHT22;7152;48.348;10.980;2023-03-01T09:28:31;3.70;99.90
14144;DHT22;7152;48.348;10.980;2023-03-01T09:31:00;3.80;99.90
14144;DHT22;7152;48.348;10.980;2023-03-01T09:33:27;3.80;99.90
14144;DHT22;7152;48.348;10.980;2023-03-01T09:36:00;3.80;99.90
14144;DHT22;7152;48.348;10.980;2023-03-01T09:38:26;3.90;99.90
14144;DHT22;7152;48.348;10.980;2023-03-01T09:40:52;4.00;99.90
14144;DHT22;7152;48.348;10.980;2023-03-01T09:46:05;4.00;99.90
14144;DHT22;7152;48.348;10.980;2023-03-01T09:48:52;4.00;99.90
14144;DHT22;7152;48.348;10.980;2023-03-01T09:51:30;4.00;99.90
14144;DHT22;7152;48.348;10.980;2023-03-01T09:53:56;4.10;99.90
14144;DHT22;7152;48.348;10.980;2023-03-01T10:02:04;3.80;99.90
14144;DHT22;7152;48.348;10.980;2023-03-01T10:04:45;3.80;99.90
14144;DHT22;7152;48.348;10.980;2023-03-01T10:09:46;3.80;99.90
14144;DHT22;7152;48.348;10.980;2023-03-01T10:12:17;3.70;99.90
14144;DHT22;7152;48.348;10.980;2023-03-01T10:15:12;3.70;99.90
14144;DHT22;7152;48.348;10.980;2023-03-01T10:20:24;3.70;99.90
14144;DHT22;7152;48.348;10.980;2023-03-01T10:22:51;3.70;99.90
14144;DHT22;7152;48.348;10.980;2023-03-01T10:28:25;3.80;99.90
14144;DHT22;7152;48.348;10.980;2023-03-01T10:30:52;3.90;99.90
14144;DHT22;7152;48.348;10.980;2023-03-01T10:33:27;3.90;99.90
14144;DHT22;7152;48.348;10.980;2023-03-01T10:35:53;4.00;99.90
14144;DHT22;7152;48.348;10.980;2023-03-01T10:38:19;4.10;99.90
14144;DHT22;7152;48.348;10.980;2023-03-01T10:43:16;4.10;99.90
14144;DHT22;7152;48.348;10.980;2023-03-01T10:45:42;4.20;99.90
14144;DHT22;7152;48.348;10.980;2023-03-01T10:50:34;4.30;99.90
14144;DHT22;7152;48.348;10.980;2023-03-01T10:53:02;4.40;99.90
14144;DHT22;7152;48.348;10.980;2023-03-01T10:55:36;4.50;99.90
14144;DHT22;7152;48.348;10.980;2023-03-01T10:58:20;4.60;99.90
14144;DHT22;7152;48.348;10.980;2023-03-01T11:03:14;4.70;99.90
14144;DHT22;7152;48.348;10.980;2023-03-01T11:06:04;4.90;99.90
14144;DHT22;7152;48.348;10.980;2023-03-01T11:08:45;5.00;99.90
14144;DHT22;7152;48.348;10.980;2023-03-01T11:11:33;5.00;99.90
14144;DHT22;7152;48.348;10.980;2023-03-01T11:16:42;5.20;99.90
14144;DHT22;7152;48.348;10.980;2023-03-01T11:21:39;5.30;99.90
14144;DHT22;7152;48.348;10.980;2023-03-01T11:24:10;5.40;99.90
14144;DHT22;7152;48.348;10.980;2023-03-01T11:26:40;5.50;99.90
14144;DHT22;7152;48.348;10.980;2023-03-01T11:29:16;5.70;99.90
14144;DHT22;7152;48.348;10.980;2023-03-01T11:31:43;5.80;99.90
14144;DHT22;7152;48.348;10.980;2023-03-01T11:34:19;5.90;99.90
14144;DHT22;7152;48.348;10.980;2023-03-01T11:36:54;6.00;99.90
14144;DHT22;7152;48.348;10.980;2023-03-01T11:42:20;6.40;99.90
14144;DHT22;7152;48.348;10.980;2023-03-01T11:44:49;6.60;99.90
14144;DHT22;7152;48.348;10.980;2023-03-01T11:47:39;6.80;99.90
14144;DHT22;7152;48.348;10.980;2023-03-01T12:01:46;7.70;99.90
14144;DHT22;7152;48.348;10.980;2023-03-01T12:10:04;8.40;99.90
14144;DHT22;7152;48.348;10.980;2023-03-01T12:13:36;8.70;99.90
14144;DHT22;7152;48.348;10.980;2023-03-01T12:21:36;9.20;99.90
14144;DHT22;7152;48.348;10.980;2023-03-01T12:35:29;10.40;99.90
14144;DHT22;7152;48.348;10.980;2023-03-01T12:38:57;10.50;99.90
14144;DHT22;7152;48.348;10.980;2023-03-01T12:44:07;11.20;99.90
14144;DHT22;7152;48.348;10.980;2023-03-01T12:50:01;12.00;99.90
14144;DHT22;7152;48.348;10.980;2023-03-01T12:52:50;12.00;99.90
14144;DHT22;7152;48.348;10.980;2023-03-01T12:55:36;12.00;99.90
14144;DHT22;7152;48.348;10.980;2023-03-01T13:12:43;13.30;99.00
14144;DHT22;7152;48.348;10.980;2023-03-01T13:15:36;13.20;98.70
14144;DHT22;7152;48.348;10.980;2023-03-01T13:20:51;13.50;98.70
14144;DHT22;7152;48.348;10.980;2023-03-01T13:31:01;14.10;96.00
14144;DHT22;7152;48.348;10.980;2023-03-01T13:36:00;14.40;96.80
14144;DHT22;7152;48.348;10.980;2023-03-01T13:41:10;15.10;96.00
14144;DHT22;7152;48.348;10.980;2023-03-01T13:43:38;15.30;96.40
14144;DHT22;7152;48.348;10.980;2023-03-01T13:46:18;15.40;95.80
14144;DHT22;7152;48.348;10.980;2023-03-01T13:48:51;15.60;93.90
14144;DHT22;7152;48.348;10.980;2023-03-01T13:51:25;15.50;94.00
14144;DHT22;7152;48.348;10.980;2023-03-01T13:53:52;15.30;94.10
14144;DHT22;7152;48.348;10.980;2023-03-01T13:56:21;15.30;94.60
14144;DHT22;7152;48.348;10.980;2023-03-01T13:59:27;15.30;94.50
14144;DHT22;7152;48.348;10.980;2023-03-01T14:01:59;15.20;93.80
14144;DHT22;7152;48.348;10.980;2023-03-01T14:06:51;15.30;94.40
14144;DHT22;7152;48.348;10.980;2023-03-01T14:09:25;15.40;94.10
14144;DHT22;7152;48.348;10.980;2023-03-01T14:14:59;15.70;93.10
14144;DHT22;7152;48.348;10.980;2023-03-01T14:20:27;15.90;92.20
14144;DHT22;7152;48.348;10.980;2023-03-01T14:22:57;15.70;92.90
14144;DHT22;7152;48.348;10.980;2023-03-01T14:25:32;15.90;92.80
14144;DHT22;7152;48.348;10.980;2023-03-01T14:30:36;16.00;92.00
14144;DHT22;7152;48.348;10.980;2023-03-01T14:33:05;15.90;91.90
14144;DHT22;7152;48.348;10.980;2023-03-01T14:35:35;15.60;91.50
14144;DHT22;7152;48.348;10.980;2023-03-01T14:38:01;15.70;92.00
14144;DHT22;7152;48.348;10.980;2023-03-01T14:40:33;15.80;92.50
14144;DHT22;7152;48.348;10.980;2023-03-01T14:43:00;15.80;91.50
14144;DHT22;7152;48.348;10.980;2023-03-01T14:45:28;15.60;91.40
14144;DHT22;7152;48.348;10.980;2023-03-01T14:47:55;15.50;91.90
14144;DHT22;7152;48.348;10.980;2023-03-01T14:50:26;15.60;91.80
14144;DHT22;7152;48.348;10.980;2023-03-01T14:52:56;15.30;91.40
14144;DHT22;7152;48.348;10.980;2023-03-01T14:55:32;14.80;91.50
14144;DHT22;7152;48.348;10.980;2023-03-01T14:57:58;13.90;91.00
14144;DHT22;7152;48.348;10.980;2023-03-01T15:00:29;13.10;91.20
14144;DHT22;7152;48.348;10.980;2023-03-01T15:02:56;12.70;91.60
14144;DHT22;7152;48.348;10.980;2023-03-01T15:05:29;12.20;91.90
14144;DHT22;7152;48.348;10.980;2023-03-01T15:07:58;11.50;92.30
14144;DHT22;7152;48.348;10.980;2023-03-01T15:10:27;11.10;92.80
14144;DHT22;7152;48.348;10.980;2023-03-01T15:12:53;10.70;93.30
14144;DHT22;7152;48.348;10.980;2023-03-01T15:15:22;10.30;93.60
14144;DHT22;7152;48.348;10.980;2023-03-01T15:17:54;9.90;94.40
14144;DHT22;7152;48.348;10.980;2023-03-01T15:20:23;9.50;94.90
14144;DHT22;7152;48.348;10.980;2023-03-01T15:22:51;9.40;95.40
14144;DHT22;7152;48.348;10.980;2023-03-01T15:25:18;9.10;95.50
14144;DHT22;7152;48.348;10.980;2023-03-01T15:27:46;9.10;95.80
14144;DHT22;7152;48.348;10.980;2023-03-01T15:30:22;9.00;96.20
14144;DHT22;7152;48.348;10.980;2023-03-01T15:32:48;9.00;96.60
14144;DHT22;7152;48.348;10.980;2023-03-01T15:35:45;8.80;96.50
14144;DHT22;7152;48.348;10.980;2023-03-01T15:38:29;8.80;97.10
14144;DHT22;7152;48.348;10.980;2023-03-01T15:40:57;8.60;97.00
14144;DHT22;7152;48.348;10.980;2023-03-01T15:43:44;8.60;97.10
14144;DHT22;7152;48.348;10.980;2023-03-01T15:48:49;8.50;97.80
14144;DHT22;7152;48.348;10.980;2023-03-01T15:51:17;8.50;97.90
14144;DHT22;7152;48.348;10.980;2023-03-01T15:53:50;8.60;98.00
14144;DHT22;7152;48.348;10.980;2023-03-01T15:56:16;8.60;98.20
14144;DHT22;7152;48.348;10.980;2023-03-01T15:58:42;8.50;98.50
14144;DHT22;7152;48.348;10.980;2023-03-01T16:01:17;8.30;98.40
14144;DHT22;7152;48.348;10.980;2023-03-01T16:03:43;8.20;98.90
14144;DHT22;7152;48.348;10.980;2023-03-01T16:06:10;7.90;98.90
14144;DHT22;7152;48.348;10.980;2023-03-01T16:08:37;7.80;99.20
14144;DHT22;7152;48.348;10.980;2023-03-01T16:11:04;7.70;99.40
14144;DHT22;7152;48.348;10.980;2023-03-01T16:13:31;7.60;99.70
14144;DHT22;7152;48.348;10.980;2023-03-01T16:15:58;7.50;99.90
14144;DHT22;7152;48.348;10.980;2023-03-01T16:18:24;7.30;99.90
14144;DHT22;7152;48.348;10.980;2023-03-01T16:20:49;7.20;99.90
14144;DHT22;7152;48.348;10.980;2023-03-01T16:23:15;7.10;99.90
14144;DHT22;7152;48.348;10.980;2023-03-01T16:25:41;7.00;99.90
14144;DHT22;7152;48.348;10.980;2023-03-01T16:28:07;7.00;99.90
14144;DHT22;7152;48.348;10.980;2023-03-01T16:30:37;6.90;99.90
14144;DHT22;7152;48.348;10.980;2023-03-01T16:33:02;6.80;99.90
14144;DHT22;7152;48.348;10.980;2023-03-01T16:35:31;6.70;99.90
14144;DHT22;7152;48.348;10.980;2023-03-01T16:37:59;6.70;99.90
14144;DHT22;7152;48.348;10.980;2023-03-01T16:40:27;6.50;99.90
14144;DHT22;7152;48.348;10.980;2023-03-01T16:42:55;6.50;99.90
14144;DHT22;7152;48.348;10.980;2023-03-01T16:45:24;6.30;99.90
14144;DHT22;7152;48.348;10.980;2023-03-01T16:47:51;6.20;99.90
14144;DHT22;7152;48.348;10.980;2023-03-01T16:50:17;6.20;99.90
14144;DHT22;7152;48.348;10.980;2023-03-01T16:52:42;6.10;99.90
14144;DHT22;7152;48.348;10.980;2023-03-01T16:55:08;6.00;99.90
14144;DHT22;7152;48.348;10.980;2023-03-01T16:57:36;5.90;99.90
14144;DHT22;7152;48.348;10.980;2023-03-01T17:00:06;5.90;99.90
14144;DHT22;7152;48.348;10.980;2023-03-01T17:02:33;5.90;99.90
14144;DHT22;7152;48.348;10.980;2023-03-01T17:04:59;5.90;99.90
14144;DHT22;7152;48.348;10.980;2023-03-01T17:07:25;5.90;99.90
14144;DHT22;7152;48.348;10.980;2023-03-01T17:09:51;5.90;99.90
14144;DHT22;7152;48.348;10.980;2023-03-01T17:12:16;5.90;99.90
14144;DHT22;7152;48.348;10.980;2023-03-01T17:14:42;6.00;99.90
14144;DHT22;7152;48.348;10.980;2023-03-01T17:17:09;6.00;99.90
14144;DHT22;7152;48.348;10.980;2023-03-01T17:19:35;6.00;99.90
14144;DHT22;7152;48.348;10.980;2023-03-01T17:22:06;6.00;99.90
14144;DHT22;7152;48.348;10.980;2023-03-01T17:24:33;6.00;99.90
14144;DHT22;7152;48.348;10.980;2023-03-01T17:26:59;6.00;99.90
14144;DHT22;7152;48.348;10.980;2023-03-01T17:29:24;6.00;99.90
14144;DHT22;7152;48.348;10.980;2023-03-01T17:31:50;5.90;99.90
14144;DHT22;7152;48.348;10.980;2023-03-01T17:34:16;5.80;99.90
14144;DHT22;7152;48.348;10.980;2023-03-01T17:36:41;5.80;99.90
14144;DHT22;7152;48.348;10.980;2023-03-01T17:39:09;5.80;99.90
14144;DHT22;7152;48.348;10.980;2023-03-01T17:41:35;5.70;99.90
14144;DHT22;7152;48.348;10.980;2023-03-01T17:44:01;5.70;99.90
14144;DHT22;7152;48.348;10.980;2023-03-01T17:46:26;5.60;99.90
14144;DHT22;7152;48.348;10.980;2023-03-01T17:48:52;5.50;99.90
14144;DHT22;7152;48.348;10.980;2023-03-01T17:51:17;5.60;99.90
14144;DHT22;7152;48.348;10.980;2023-03-01T17:53:43;5.50;99.90
14144;DHT22;7152;48.348;10.980;2023-03-01T17:56:09;5.50;99.90
14144;DHT22;7152;48.348;10.980;2023-03-01T17:58:36;5.40;99.90
14144;DHT22;7152;48.348;10.980;2023-03-01T18:01:18;5.30;99.90